sensor_id;sensor_type;location;lat;lon;timestamp;pressure;altitude;pressure_sealevel;temperature
32039;BMP280;18549;42.286;22.688;2024-03-07T00:00:04;95441.50;;;11.54
32039;BMP280;18549;42.286;22.688;2024-03-07T00:02:40;95441.50;;;11.54
32039;BMP280;18549;42.286;22.688;2024-03-07T00:05:08;95454.59;;;11.56
32039;BMP280;18549;42.286;22.688;2024-03-07T00:07:35;95451.56;;;11.40
32039;BMP280;18549;42.286;22.688;2024-03-07T00:10:02;95449.53;;;11.34
32039;BMP280;18549;42.286;22.688;2024-03-07T00:12:32;95455.44;;;11.32
32039;BMP280;18549;42.286;22.688;2024-03-07T00:14:59;95449.63;;;11.20
32039;BMP280;18549;42.286;22.688;2024-03-07T00:17:26;95462.25;;;11.18
32039;BMP280;18549;42.286;22.688;2024-03-07T00:19:52;95456.13;;;11.11
32039;BMP280;18549;42.286;22.688;2024-03-07T00:22:21;95461.47;;;11.17
32039;BMP280;18549;42.286;22.688;2024-03-07T00:24:49;95459.37;;;11.23
32039;BMP280;18549;42.286;22.688;2024-03-07T00:27:16;95468.69;;;11.32
32039;BMP280;18549;42.286;22.688;2024-03-07T00:29:43;95466.19;;;11.32
32039;BMP280;18549;42.286;22.688;2024-03-07T00:32:18;95465.97;;;11.35
32039;BMP280;18549;42.286;22.688;2024-03-07T00:34:47;95469.56;;;11.31
32039;BMP280;18549;42.286;22.688;2024-03-07T00:37:14;95472.50;;;11.36
32039;BMP280;18549;42.286;22.688;2024-03-07T00:39:42;95470.47;;;11.30
32039;BMP280;18549;42.286;22.688;2024-03-07T00:42:09;95473.81;;;11.29
32039;BMP280;18549;42.286;22.688;2024-03-07T00:44:36;95467.19;;;11.30
32039;BMP280;18549;42.286;22.688;2024-03-07T00:47:03;95466.37;;;11.29
32039;BMP280;18549;42.286;22.688;2024-03-07T00:49:33;95460.63;;;11.29
32039;BMP280;18549;42.286;22.688;2024-03-07T00:52:00;95462.44;;;11.27
32039;BMP280;18549;42.286;22.688;2024-03-07T00:54:26;95465.84;;;11.14
32039;BMP280;18549;42.286;22.688;2024-03-07T00:56:55;95459.53;;;11.10
32039;BMP280;18549;42.286;22.688;2024-03-07T00:59:21;95457.66;;;11.01
32039;BMP280;18549;42.286;22.688;2024-03-07T01:01:48;95450.59;;;10.95
32039;BMP280;18549;42.286;22.688;2024-03-07T01:04:15;95453.78;;;10.97
32039;BMP280;18549;42.286;22.688;2024-03-07T01:06:43;95453.38;;;11.03
32039;BMP280;18549;42.286;22.688;2024-03-07T01:09:09;95443.94;;;11.08
32039;BMP280;18549;42.286;22.688;2024-03-07T01:11:40;95446.44;;;11.08
32039;BMP280;18549;42.286;22.688;2024-03-07T01:14:08;95443.94;;;11.08
32039;BMP280;18549;42.286;22.688;2024-03-07T01:16:35;95433.13;;;11.09
32039;BMP280;18549;42.286;22.688;2024-03-07T01:19:02;95431.53;;;11.08
32039;BMP280;18549;42.286;22.688;2024-03-07T01:21:31;95427.87;;;11.01
32039;BMP280;18549;42.286;22.688;2024-03-07T01:23:58;95435.13;;;11.04
32039;BMP280;18549;42.286;22.688;2024-03-07T01:26:25;95430.06;;;11.05
32039;BMP280;18549;42.286;22.688;2024-03-07T01:28:52;95436.72;;;11.05
32039;BMP280;18549;42.286;22.688;2024-03-07T01:31:21;95438.50;;;11.03
32039;BMP280;18549;42.286;22.688;2024-03-07T01:33:48;95428.47;;;11.04
32039;BMP280;18549;42.286;22.688;2024-03-07T01:36:15;95429.16;;;11.06
32039;BMP280;18549;42.286;22.688;2024-03-07T01:38:41;95428.37;;;11.06
32039;BMP280;18549;42.286;22.688;2024-03-07T01:41:08;95425.81;;;10.95
32039;BMP280;18549;42.286;22.688;2024-03-07T01:43:35;95423.47;;;10.93
32039;BMP280;18549;42.286;22.688;2024-03-07T01:46:02;95431.00;;;10.92
32039;BMP280;18549;42.286;22.688;2024-03-07T01:48:31;95430.78;;;10.95
32039;BMP280;18549;42.286;22.688;2024-03-07T01:50:58;95420.44;;;11.01
32039;BMP280;18549;42.286;22.688;2024-03-07T01:53:26;95425.09;;;11.05
32039;BMP280;18549;42.286;22.688;2024-03-07T01:55:53;95424.00;;;11.09
32039;BMP280;18549;42.286;22.688;2024-03-07T01:58:21;95413.88;;;11.12
32039;BMP280;18549;42.286;22.688;2024-03-07T02:00:47;95418.91;;;11.11
32039;BMP280;18549;42.286;22.688;2024-03-07T02:03:14;95423.88;;;11.11
32039;BMP280;18549;42.286;22.688;2024-03-07T02:05:42;95418.03;;;11.12
32039;BMP280;18549;42.286;22.688;2024-03-07T02:08:09;95432.22;;;11.10
32039;BMP280;18549;42.286;22.688;2024-03-07T02:10:36;95428.06;;;11.10
32039;BMP280;18549;42.286;22.688;2024-03-07T02:13:03;95433.13;;;11.09
32039;BMP280;18549;42.286;22.688;2024-03-07T02:15:30;95426.59;;;11.08
32039;BMP280;18549;42.286;22.688;2024-03-07T02:17:58;95428.41;;;10.93
32039;BMP280;18549;42.286;22.688;2024-03-07T02:20:25;95426.25;;;10.89
32039;BMP280;18549;42.286;22.688;2024-03-07T02:22:54;95418.19;;;10.86
32039;BMP280;18549;42.286;22.688;2024-03-07T02:25:21;95421.28;;;10.89
32039;BMP280;18549;42.286;22.688;2024-03-07T02:27:48;95422.06;;;10.89
32039;BMP280;18549;42.286;22.688;2024-03-07T02:30:15;95429.50;;;10.89
32039;BMP280;18549;42.286;22.688;2024-03-07T02:32:45;95440.12;;;10.91
32039;BMP280;18549;42.286;22.688;2024-03-07T02:35:17;95433.56;;;10.90
32039;BMP280;18549;42.286;22.688;2024-03-07T02:37:44;95423.94;;;10.86
32039;BMP280;18549;42.286;22.688;2024-03-07T02:40:13;95431.38;;;10.86
32039;BMP280;18549;42.286;22.688;2024-03-07T02:42:40;95440.53;;;10.86
32039;BMP280;18549;42.286;22.688;2024-03-07T02:45:07;95431.19;;;10.89
32039;BMP280;18549;42.286;22.688;2024-03-07T02:47:35;95429.50;;;10.77
32039;BMP280;18549;42.286;22.688;2024-03-07T02:50:04;95435.13;;;10.68
32039;BMP280;18549;42.286;22.688;2024-03-07T02:52:33;95442.34;;;10.71
32039;BMP280;18549;42.286;22.688;2024-03-07T02:54:59;95442.13;;;10.74
32039;BMP280;18549;42.286;22.688;2024-03-07T02:57:30;95426.38;;;10.75
32039;BMP280;18549;42.286;22.688;2024-03-07T02:59:56;95428.56;;;10.67
32039;BMP280;18549;42.286;22.688;2024-03-07T03:02:23;95423.13;;;10.62
32039;BMP280;18549;42.286;22.688;2024-03-07T03:04:50;95419.38;;;10.57
32039;BMP280;18549;42.286;22.688;2024-03-07T03:07:17;95413.50;;;10.58
32039;BMP280;18549;42.286;22.688;2024-03-07T03:09:44;95417.47;;;10.60
32039;BMP280;18549;42.286;22.688;2024-03-07T03:12:11;95410.03;;;10.60
32039;BMP280;18549;42.286;22.688;2024-03-07T03:14:39;95426.69;;;10.58
32039;BMP280;18549;42.286;22.688;2024-03-07T03:17:07;95433.03;;;10.62
32039;BMP280;18549;42.286;22.688;2024-03-07T03:19:36;95430.94;;;10.56
32039;BMP280;18549;42.286;22.688;2024-03-07T03:22:03;95433.25;;;10.59
32039;BMP280;18549;42.286;22.688;2024-03-07T03:24:30;95428.28;;;10.59
32039;BMP280;18549;42.286;22.688;2024-03-07T03:26:57;95427.59;;;10.57
32039;BMP280;18549;42.286;22.688;2024-03-07T03:29:24;95425.72;;;10.49
32039;BMP280;18549;42.286;22.688;2024-03-07T03:31:57;95423.62;;;10.43
32039;BMP280;18549;42.286;22.688;2024-03-07T03:34:24;95434.13;;;10.46
32039;BMP280;18549;42.286;22.688;2024-03-07T03:36:52;95423.31;;;10.47
32039;BMP280;18549;42.286;22.688;2024-03-07T03:39:21;95418.28;;;10.49
32039;BMP280;18549;42.286;22.688;2024-03-07T03:41:48;95405.66;;;10.52
32039;BMP280;18549;42.286;22.688;2024-03-07T03:44:15;95403.69;;;10.56
32039;BMP280;18549;42.286;22.688;2024-03-07T03:46:42;95407.16;;;10.54
32039;BMP280;18549;42.286;22.688;2024-03-07T03:49:10;95410.63;;;10.52
32039;BMP280;18549;42.286;22.688;2024-03-07T03:51:36;95417.31;;;10.39
32039;BMP280;18549;42.286;22.688;2024-03-07T03:54:03;95413.81;;;10.41
32039;BMP280;18549;42.286;22.688;2024-03-07T03:56:31;95418.47;;;10.46
32039;BMP280;18549;42.286;22.688;2024-03-07T03:58:58;95410.84;;;10.49
32039;BMP280;18549;42.286;22.688;2024-03-07T04:01:24;95409.28;;;10.48
32039;BMP280;18549;42.286;22.688;2024-03-07T04:03:51;95408.28;;;10.50
32039;BMP280;18549;42.286;22.688;2024-03-07T04:06:19;95409.28;;;10.48
32039;BMP280;18549;42.286;22.688;2024-03-07T04:08:46;95397.53;;;10.50
32039;BMP280;18549;42.286;22.688;2024-03-07T04:11:13;95407.28;;;10.53
32039;BMP280;18549;42.286;22.688;2024-03-07T04:13:40;95401.31;;;10.43
32039;BMP280;18549;42.286;22.688;2024-03-07T04:16:06;95415.50;;;10.28
32039;BMP280;18549;42.286;22.688;2024-03-07T04:18:34;95406.69;;;10.37
32039;BMP280;18549;42.286;22.688;2024-03-07T04:21:00;95404.50;;;10.45
32039;BMP280;18549;42.286;22.688;2024-03-07T04:23:28;95414.22;;;10.48
32039;BMP280;18549;42.286;22.688;2024-03-07T04:25:55;95413.31;;;10.49
32039;BMP280;18549;42.286;22.688;2024-03-07T04:28:22;95411.53;;;10.51
32039;BMP280;18549;42.286;22.688;2024-03-07T04:30:49;95410.94;;;10.47
32039;BMP280;18549;42.286;22.688;2024-03-07T04:33:21;95408.56;;;10.46
32039;BMP280;18549;42.286;22.688;2024-03-07T04:35:48;95423.53;;;10.44
32039;BMP280;18549;42.286;22.688;2024-03-07T04:38:19;95433.25;;;10.35
32039;BMP280;18549;42.286;22.688;2024-03-07T04:40:47;95430.97;;;10.32
32039;BMP280;18549;42.286;22.688;2024-03-07T04:43:14;95441.25;;;10.38
32039;BMP280;18549;42.286;22.688;2024-03-07T04:45:41;95449.09;;;10.32
32039;BMP280;18549;42.286;22.688;2024-03-07T04:48:07;95447.31;;;10.34
32039;BMP280;18549;42.286;22.688;2024-03-07T04:50:35;95438.19;;;10.35
32039;BMP280;18549;42.286;22.688;2024-03-07T04:53:01;95451.25;;;10.24
32039;BMP280;18549;42.286;22.688;2024-03-07T04:55:28;95436.69;;;10.20
32039;BMP280;18549;42.286;22.688;2024-03-07T04:57:57;95428.69;;;10.17
32039;BMP280;18549;42.286;22.688;2024-03-07T05:00:24;95429.28;;;10.08
32039;BMP280;18549;42.286;22.688;2024-03-07T05:02:50;95426.88;;;10.06
32039;BMP280;18549;42.286;22.688;2024-03-07T05:05:17;95426.88;;;10.06
32039;BMP280;18549;42.286;22.688;2024-03-07T05:07:48;95425.09;;;10.08
32039;BMP280;18549;42.286;22.688;2024-03-07T05:10:16;95420.84;;;10.10
32039;BMP280;18549;42.286;22.688;2024-03-07T05:12:42;95412.34;;;10.14
32039;BMP280;18549;42.286;22.688;2024-03-07T05:15:11;95418.00;;;10.16
32039;BMP280;18549;42.286;22.688;2024-03-07T05:17:38;95422.53;;;10.22
32039;BMP280;18549;42.286;22.688;2024-03-07T05:20:08;95406.81;;;10.23
32039;BMP280;18549;42.286;22.688;2024-03-07T05:22:35;95401.16;;;10.09
32039;BMP280;18549;42.286;22.688;2024-03-07T05:25:05;95401.84;;;9.98
32039;BMP280;18549;42.286;22.688;2024-03-07T05:27:32;95408.84;;;9.92
32039;BMP280;18549;42.286;22.688;2024-03-07T05:30:01;95393.00;;;9.94
32039;BMP280;18549;42.286;22.688;2024-03-07T05:32:30;95390.53;;;9.94
32039;BMP280;18549;42.286;22.688;2024-03-07T05:34:59;95400.13;;;9.87
32039;BMP280;18549;42.286;22.688;2024-03-07T05:37:26;95403.59;;;9.84
32039;BMP280;18549;42.286;22.688;2024-03-07T05:39:53;95413.37;;;9.86
32039;BMP280;18549;42.286;22.688;2024-03-07T05:42:20;95402.47;;;9.88
32039;BMP280;18549;42.286;22.688;2024-03-07T05:44:46;95411.28;;;9.80
32039;BMP280;18549;42.286;22.688;2024-03-07T05:47:14;95397.16;;;9.82
32039;BMP280;18549;42.286;22.688;2024-03-07T05:49:43;95385.78;;;9.91
32039;BMP280;18549;42.286;22.688;2024-03-07T05:52:09;95380.47;;;9.97
32039;BMP280;18549;42.286;22.688;2024-03-07T05:54:36;95381.34;;;10.09
32039;BMP280;18549;42.286;22.688;2024-03-07T05:57:03;95370.47;;;10.11
32039;BMP280;18549;42.286;22.688;2024-03-07T05:59:31;95382.44;;;10.05
32039;BMP280;18549;42.286;22.688;2024-03-07T06:01:57;95394.12;;;10.03
32039;BMP280;18549;42.286;22.688;2024-03-07T06:04:24;95397.37;;;10.03
32039;BMP280;18549;42.286;22.688;2024-03-07T06:06:52;95397.19;;;10.06
32039;BMP280;18549;42.286;22.688;2024-03-07T06:09:19;95391.13;;;10.10
32039;BMP280;18549;42.286;22.688;2024-03-07T06:11:48;95404.00;;;10.15
32039;BMP280;18549;42.286;22.688;2024-03-07T06:14:15;95406.78;;;9.98
32039;BMP280;18549;42.286;22.688;2024-03-07T06:16:42;95406.50;;;10.03
32039;BMP280;18549;42.286;22.688;2024-03-07T06:19:09;95411.06;;;10.09
32039;BMP280;18549;42.286;22.688;2024-03-07T06:21:37;95406.91;;;10.09
32039;BMP280;18549;42.286;22.688;2024-03-07T06:24:07;95408.97;;;10.15
32039;BMP280;18549;42.286;22.688;2024-03-07T06:26:36;95400.38;;;10.21
32039;BMP280;18549;42.286;22.688;2024-03-07T06:29:12;95407.50;;;10.25
32039;BMP280;18549;42.286;22.688;2024-03-07T06:31:39;95395.59;;;10.30
32039;BMP280;18549;42.286;22.688;2024-03-07T06:34:06;95393.00;;;10.31
32039;BMP280;18549;42.286;22.688;2024-03-07T06:36:33;95409.25;;;10.35
32039;BMP280;18549;42.286;22.688;2024-03-07T06:39:00;95414.22;;;10.23
32039;BMP280;18549;42.286;22.688;2024-03-07T06:41:29;95428.19;;;10.24
32039;BMP280;18549;42.286;22.688;2024-03-07T06:43:56;95415.50;;;10.28
32039;BMP280;18549;42.286;22.688;2024-03-07T06:46:23;95419.78;;;10.39
32039;BMP280;18549;42.286;22.688;2024-03-07T06:48:50;95422.16;;;10.28
32039;BMP280;18549;42.286;22.688;2024-03-07T06:51:17;95424.72;;;10.26
32039;BMP280;18549;42.286;22.688;2024-03-07T06:53:45;95412.03;;;10.31
32039;BMP280;18549;42.286;22.688;2024-03-07T06:56:12;95406.56;;;10.38
32039;BMP280;18549;42.286;22.688;2024-03-07T06:58:41;95421.75;;;10.34
32039;BMP280;18549;42.286;22.688;2024-03-07T07:01:09;95420.87;;;10.35
32039;BMP280;18549;42.286;22.688;2024-03-07T07:03:37;95424.44;;;10.31
32039;BMP280;18549;42.286;22.688;2024-03-07T07:06:04;95429.38;;;10.31
32039;BMP280;18549;42.286;22.688;2024-03-07T07:08:32;95438.78;;;10.38
32039;BMP280;18549;42.286;22.688;2024-03-07T07:10:59;95420.25;;;10.44
32039;BMP280;18549;42.286;22.688;2024-03-07T07:13:25;95431.06;;;10.43
32039;BMP280;18549;42.286;22.688;2024-03-07T07:15:54;95431.44;;;10.49
32039;BMP280;18549;42.286;22.688;2024-03-07T07:18:20;95447.09;;;10.50
32039;BMP280;18549;42.286;22.688;2024-03-07T07:20:49;95455.44;;;10.49
32039;BMP280;18549;42.286;22.688;2024-03-07T07:23:17;95451.88;;;10.53
32039;BMP280;18549;42.286;22.688;2024-03-07T07:25:44;95451.16;;;10.63
32039;BMP280;18549;42.286;22.688;2024-03-07T07:28:11;95455.81;;;10.67
32039;BMP280;18549;42.286;22.688;2024-03-07T07:30:38;95459.00;;;10.69
32039;BMP280;18549;42.286;22.688;2024-03-07T07:33:06;95464.94;;;10.67
32039;BMP280;18549;42.286;22.688;2024-03-07T07:35:33;95469.28;;;10.63
32039;BMP280;18549;42.286;22.688;2024-03-07T07:38:00;95473.16;;;10.67
32039;BMP280;18549;42.286;22.688;2024-03-07T07:40:27;95480.09;;;10.75
32039;BMP280;18549;42.286;22.688;2024-03-07T07:42:56;95483.19;;;10.78
32039;BMP280;18549;42.286;22.688;2024-03-07T07:45:24;95483.97;;;10.79
32039;BMP280;18549;42.286;22.688;2024-03-07T07:47:52;95486.22;;;10.82
32039;BMP280;18549;42.286;22.688;2024-03-07T07:50:21;95490.00;;;10.87
32039;BMP280;18549;42.286;22.688;2024-03-07T07:52:50;95499.50;;;10.93
32039;BMP280;18549;42.286;22.688;2024-03-07T07:55:19;95494.25;;;10.97
32039;BMP280;18549;42.286;22.688;2024-03-07T07:57:47;95495.25;;;10.95
32039;BMP280;18549;42.286;22.688;2024-03-07T08:00:15;95499.84;;;10.76
32039;BMP280;18549;42.286;22.688;2024-03-07T08:02:52;95501.31;;;10.79
32039;BMP280;18549;42.286;22.688;2024-03-07T08:05:21;95505.69;;;10.75
32039;BMP280;18549;42.286;22.688;2024-03-07T08:07:49;95511.44;;;10.76
32039;BMP280;18549;42.286;22.688;2024-03-07T08:10:17;95511.84;;;10.82
32039;BMP280;18549;42.286;22.688;2024-03-07T08:12:44;95512.13;;;10.90
32039;BMP280;18549;42.286;22.688;2024-03-07T08:15:11;95514.81;;;10.87
32039;BMP280;18549;42.286;22.688;2024-03-07T08:17:42;95512.63;;;10.70
32039;BMP280;18549;42.286;22.688;2024-03-07T08:20:11;95508.19;;;10.75
32039;BMP280;18549;42.286;22.688;2024-03-07T08:22:40;95517.50;;;10.84
32039;BMP280;18549;42.286;22.688;2024-03-07T08:25:08;95518.47;;;10.94
32039;BMP280;18549;42.286;22.688;2024-03-07T08:27:36;95518.09;;;10.75
32039;BMP280;18549;42.286;22.688;2024-03-07T08:30:04;95524.41;;;10.79
32039;BMP280;18549;42.286;22.688;2024-03-07T08:32:32;95508.16;;;10.87
32039;BMP280;18549;42.286;22.688;2024-03-07T08:35:03;95509.34;;;10.94
32039;BMP280;18549;42.286;22.688;2024-03-07T08:37:33;95514.00;;;10.99
32039;BMP280;18549;42.286;22.688;2024-03-07T08:40:02;95514.00;;;10.99
32039;BMP280;18549;42.286;22.688;2024-03-07T08:42:32;95515.50;;;10.89
32039;BMP280;18549;42.286;22.688;2024-03-07T08:45:02;95508.84;;;10.89
32039;BMP280;18549;42.286;22.688;2024-03-07T08:47:30;95520.53;;;11.00
32039;BMP280;18549;42.286;22.688;2024-03-07T08:49:57;95515.28;;;10.92
32039;BMP280;18549;42.286;22.688;2024-03-07T08:52:23;95514.31;;;10.82
32039;BMP280;18549;42.286;22.688;2024-03-07T08:54:50;95512.84;;;10.80
32039;BMP280;18549;42.286;22.688;2024-03-07T08:57:18;95512.31;;;10.87
32039;BMP280;18549;42.286;22.688;2024-03-07T08:59:47;95519.44;;;11.04
32039;BMP280;18549;42.286;22.688;2024-03-07T09:02:14;95519.09;;;11.20
32039;BMP280;18549;42.286;22.688;2024-03-07T09:04:41;95509.69;;;11.25
32039;BMP280;18549;42.286;22.688;2024-03-07T09:07:08;95505.59;;;11.24
32039;BMP280;18549;42.286;22.688;2024-03-07T09:09:35;95508.00;;;11.26
32039;BMP280;18549;42.286;22.688;2024-03-07T09:12:02;95503.72;;;11.28
32039;BMP280;18549;42.286;22.688;2024-03-07T09:14:30;95506.38;;;11.25
32039;BMP280;18549;42.286;22.688;2024-03-07T09:16:57;95502.72;;;11.30
32039;BMP280;18549;42.286;22.688;2024-03-07T09:19:24;95509.06;;;11.34
32039;BMP280;18549;42.286;22.688;2024-03-07T09:21:51;95511.63;;;11.33
32039;BMP280;18549;42.286;22.688;2024-03-07T09:24:18;95508.69;;;11.28
32039;BMP280;18549;42.286;22.688;2024-03-07T09:26:47;95502.34;;;11.24
32039;BMP280;18549;42.286;22.688;2024-03-07T09:29:14;95503.87;;;11.37
32039;BMP280;18549;42.286;22.688;2024-03-07T09:31:42;95499.91;;;11.47
32039;BMP280;18549;42.286;22.688;2024-03-07T09:34:09;95501.50;;;11.48
32039;BMP280;18549;42.286;22.688;2024-03-07T09:36:36;95510.44;;;11.38
32039;BMP280;18549;42.286;22.688;2024-03-07T09:39:03;95497.84;;;11.41
32039;BMP280;18549;42.286;22.688;2024-03-07T09:41:29;95498.72;;;11.40
32039;BMP280;18549;42.286;22.688;2024-03-07T09:43:57;95495.16;;;11.44
32039;BMP280;18549;42.286;22.688;2024-03-07T09:46:26;95494.22;;;11.57
32039;BMP280;18549;42.286;22.688;2024-03-07T09:48:55;95485.84;;;11.71
32039;BMP280;18549;42.286;22.688;2024-03-07T09:51:24;95473.66;;;11.79
32039;BMP280;18549;42.286;22.688;2024-03-07T09:53:52;95475.28;;;11.90
32039;BMP280;18549;42.286;22.688;2024-03-07T09:56:20;95476.66;;;11.94
32039;BMP280;18549;42.286;22.688;2024-03-07T09:58:50;95480.75;;;12.06
32039;BMP280;18549;42.286;22.688;2024-03-07T10:01:19;95476.91;;;12.02
32039;BMP280;18549;42.286;22.688;2024-03-07T10:03:47;95476.38;;;12.10
32039;BMP280;18549;42.286;22.688;2024-03-07T10:06:16;95468.56;;;12.14
32039;BMP280;18549;42.286;22.688;2024-03-07T10:08:42;95466.75;;;12.05
32039;BMP280;18549;42.286;22.688;2024-03-07T10:11:09;95465.37;;;12.01
32039;BMP280;18549;42.286;22.688;2024-03-07T10:13:36;95455.50;;;12.12
32039;BMP280;18549;42.286;22.688;2024-03-07T10:16:05;95452.81;;;12.26
32039;BMP280;18549;42.286;22.688;2024-03-07T10:18:35;95453.25;;;12.31
32039;BMP280;18549;42.286;22.688;2024-03-07T10:21:13;95450.31;;;12.37
32039;BMP280;18549;42.286;22.688;2024-03-07T10:23:41;95454.84;;;12.43
32039;BMP280;18549;42.286;22.688;2024-03-07T10:26:10;95455.63;;;12.43
32039;BMP280;18549;42.286;22.688;2024-03-07T10:28:37;95448.63;;;12.26
32039;BMP280;18549;42.286;22.688;2024-03-07T10:31:05;95446.22;;;12.25
32039;BMP280;18549;42.286;22.688;2024-03-07T10:33:36;95441.38;;;12.34
32039;BMP280;18549;42.286;22.688;2024-03-07T10:36:04;95437.44;;;12.32
32039;BMP280;18549;42.286;22.688;2024-03-07T10:38:36;95436.53;;;12.44
32039;BMP280;18549;42.286;22.688;2024-03-07T10:41:05;95431.25;;;12.37
32039;BMP280;18549;42.286;22.688;2024-03-07T10:43:36;95431.12;;;12.50
32039;BMP280;18549;42.286;22.688;2024-03-07T10:46:07;95436.53;;;12.44
32039;BMP280;18549;42.286;22.688;2024-03-07T10:48:39;95427.50;;;12.32
32039;BMP280;18549;42.286;22.688;2024-03-07T10:51:14;95428.19;;;12.34
32039;BMP280;18549;42.286;22.688;2024-03-07T10:53:50;95423.91;;;12.47
32039;BMP280;18549;42.286;22.688;2024-03-07T10:56:36;95414.88;;;12.67
32039;BMP280;18549;42.286;22.688;2024-03-07T10:59:11;95411.16;;;12.84
32039;BMP280;18549;42.286;22.688;2024-03-07T11:01:47;95411.50;;;12.90
32039;BMP280;18549;42.286;22.688;2024-03-07T11:04:16;95405.72;;;12.89
32039;BMP280;18549;42.286;22.688;2024-03-07T11:06:44;95413.53;;;12.85
32039;BMP280;18549;42.286;22.688;2024-03-07T11:09:11;95402.09;;;12.83
32039;BMP280;18549;42.286;22.688;2024-03-07T11:11:40;95404.59;;;12.83
32039;BMP280;18549;42.286;22.688;2024-03-07T11:14:09;95397.50;;;12.78
32039;BMP280;18549;42.286;22.688;2024-03-07T11:16:38;95390.22;;;12.75
32039;BMP280;18549;42.286;22.688;2024-03-07T11:19:19;95397.69;;;12.64
32039;BMP280;18549;42.286;22.688;2024-03-07T11:21:46;95400.09;;;12.77
32039;BMP280;18549;42.286;22.688;2024-03-07T11:24:22;95397.59;;;12.77
32039;BMP280;18549;42.286;22.688;2024-03-07T11:26:52;95392.97;;;12.83
32039;BMP280;18549;42.286;22.688;2024-03-07T11:29:42;95392.28;;;12.92
32039;BMP280;18549;42.286;22.688;2024-03-07T11:32:10;95389.78;;;12.92
32039;BMP280;18549;42.286;22.688;2024-03-07T11:34:41;95388.75;;;12.94
32039;BMP280;18549;42.286;22.688;2024-03-07T11:37:08;95381.97;;;12.96
32039;BMP280;18549;42.286;22.688;2024-03-07T11:39:43;95387.84;;;12.95
32039;BMP280;18549;42.286;22.688;2024-03-07T11:42:28;95383.88;;;12.93
32039;BMP280;18549;42.286;22.688;2024-03-07T11:44:57;95381.75;;;12.78
32039;BMP280;18549;42.286;22.688;2024-03-07T11:47:24;95382.34;;;12.81
32039;BMP280;18549;42.286;22.688;2024-03-07T11:49:54;95382.34;;;12.81
32039;BMP280;18549;42.286;22.688;2024-03-07T11:52:23;95381.63;;;12.90
32039;BMP280;18549;42.286;22.688;2024-03-07T11:54:52;95373.59;;;12.97
32039;BMP280;18549;42.286;22.688;2024-03-07T11:57:19;95366.03;;;12.99
32039;BMP280;18549;42.286;22.688;2024-03-07T11:59:53;95363.06;;;12.94
32039;BMP280;18549;42.286;22.688;2024-03-07T12:02:20;95367.59;;;13.00
32039;BMP280;18549;42.286;22.688;2024-03-07T12:04:48;95362.56;;;13.21
32039;BMP280;18549;42.286;22.688;2024-03-07T12:07:15;95360.44;;;13.37
32039;BMP280;18549;42.286;22.688;2024-03-07T12:09:43;95360.91;;;13.42
32039;BMP280;18549;42.286;22.688;2024-03-07T12:12:16;95359.72;;;13.46
32039;BMP280;18549;42.286;22.688;2024-03-07T12:14:42;95357.38;;;13.45
32039;BMP280;18549;42.286;22.688;2024-03-07T12:17:11;95356.97;;;13.40
32039;BMP280;18549;42.286;22.688;2024-03-07T12:19:38;95354.56;;;13.38
32039;BMP280;18549;42.286;22.688;2024-03-07T12:22:08;95357.00;;;13.29
32039;BMP280;18549;42.286;22.688;2024-03-07T12:24:38;95347.31;;;13.15
32039;BMP280;18549;42.286;22.688;2024-03-07T12:27:06;95348.88;;;13.16
32039;BMP280;18549;42.286;22.688;2024-03-07T12:29:35;95340.53;;;13.17
32039;BMP280;18549;42.286;22.688;2024-03-07T12:32:03;95336.13;;;13.10
32039;BMP280;18549;42.286;22.688;2024-03-07T12:34:33;95336.44;;;13.16
32039;BMP280;18549;42.286;22.688;2024-03-07T12:37:03;95332.91;;;13.18
32039;BMP280;18549;42.286;22.688;2024-03-07T12:39:32;95329.97;;;13.24
32039;BMP280;18549;42.286;22.688;2024-03-07T12:42:02;95323.66;;;13.41
32039;BMP280;18549;42.286;22.688;2024-03-07T12:44:39;95325.88;;;13.54
32039;BMP280;18549;42.286;22.688;2024-03-07T12:47:09;95317.47;;;13.76
32039;BMP280;18549;42.286;22.688;2024-03-07T12:49:37;95317.12;;;14.00
32039;BMP280;18549;42.286;22.688;2024-03-07T12:52:05;95312.63;;;14.24
32039;BMP280;18549;42.286;22.688;2024-03-07T12:54:36;95308.50;;;14.43
32039;BMP280;18549;42.286;22.688;2024-03-07T12:57:06;95314.03;;;14.47
32039;BMP280;18549;42.286;22.688;2024-03-07T12:59:34;95306.72;;;14.54
32039;BMP280;18549;42.286;22.688;2024-03-07T13:02:03;95301.84;;;14.53
32039;BMP280;18549;42.286;22.688;2024-03-07T13:04:32;95313.37;;;14.45
32039;BMP280;18549;42.286;22.688;2024-03-07T13:07:06;95312.50;;;14.25
32039;BMP280;18549;42.286;22.688;2024-03-07T13:09:36;95313.78;;;14.11
32039;BMP280;18549;42.286;22.688;2024-03-07T13:12:04;95315.22;;;14.13
32039;BMP280;18549;42.286;22.688;2024-03-07T13:14:35;95314.84;;;14.18
32039;BMP280;18549;42.286;22.688;2024-03-07T13:17:02;95315.97;;;14.04
32039;BMP280;18549;42.286;22.688;2024-03-07T13:19:30;95311.47;;;13.98
32039;BMP280;18549;42.286;22.688;2024-03-07T13:21:57;95309.88;;;13.97
32039;BMP280;18549;42.286;22.688;2024-03-07T13:24:27;95307.25;;;13.99
32039;BMP280;18549;42.286;22.688;2024-03-07T13:26:55;95309.19;;;13.95
32039;BMP280;18549;42.286;22.688;2024-03-07T13:29:22;95312.06;;;13.91
32039;BMP280;18549;42.286;22.688;2024-03-07T13:31:51;95310.41;;;13.81
32039;BMP280;18549;42.286;22.688;2024-03-07T13:34:21;95307.72;;;13.63
32039;BMP280;18549;42.286;22.688;2024-03-07T13:36:51;95311.88;;;13.22
32039;BMP280;18549;42.286;22.688;2024-03-07T13:39:18;95311.50;;;12.96
32039;BMP280;18549;42.286;22.688;2024-03-07T13:41:46;95332.25;;;12.64
32039;BMP280;18549;42.286;22.688;2024-03-07T13:44:13;95347.06;;;12.44
32039;BMP280;18549;42.286;22.688;2024-03-07T13:46:40;95366.28;;;12.31
32039;BMP280;18549;42.286;22.688;2024-03-07T13:49:07;95368.47;;;11.80
32039;BMP280;18549;42.286;22.688;2024-03-07T13:51:38;95381.00;;;11.44
32039;BMP280;18549;42.286;22.688;2024-03-07T13:54:15;95385.13;;;11.20
32039;BMP280;18549;42.286;22.688;2024-03-07T13:57:19;95393.84;;;10.67
32039;BMP280;18549;42.286;22.688;2024-03-07T14:00:08;95397.06;;;10.57
32039;BMP280;18549;42.286;22.688;2024-03-07T14:03:22;95410.44;;;10.54